Time;durP1;ratioP1;P1;durP2;ratioP2;P2;SDS_P1;SDS_P2;PMS_P1;PMS_P2;Temp;Humidity;BMP_temperature;BMP_pressure;BME280_temperature;BME280_humidity;BME280_pressure;Samples;Min_cycle;Max_cycle;Signal;HPM_P1;HPM_P2
2023/04/17 00:01:22;;;;;;;1.23;0.95;;;19.80;80.50;;;;;;4951388;28;20040;-79
2023/04/17 00:03:47;;;;;;;0.88;0.75;;;19.80;80.50;;;;;;4958348;29;20052;-79
2023/04/17 00:06:13;;;;;;;1.08;0.80;;;19.70;80.40;;;;;;4958204;29;20358;-77
2023/04/17 00:08:39;;;;;;;1.45;0.95;;;19.70;80.40;;;;;;4952542;28;20507;-78
2023/04/17 00:11:05;;;;;;;1.58;1.00;;;19.70;80.40;;;;;;4953558;28;20034;-78
2023/04/17 00:13:31;;;;;;;1.67;0.82;;;19.70;80.40;;;;;;4952540;28;20027;-79
2023/04/17 00:15:56;;;;;;;1.20;0.68;;;19.70;80.40;;;;;;4952006;29;20624;-78
2023/04/17 00:18:22;;;;;;;1.25;0.90;;;19.70;80.40;;;;;;4953557;29;20524;-78
2023/04/17 00:20:47;;;;;;;4.60;0.98;;;19.70;80.30;;;;;;4953341;28;20023;-77
2023/04/17 00:23:13;;;;;;;1.35;0.90;;;19.70;80.30;;;;;;4953745;29;20054;-77
2023/04/17 00:25:39;;;;;;;0.88;0.88;;;19.70;80.40;;;;;;4953535;29;20484;-78
2023/04/17 00:28:04;;;;;;;2.20;1.00;;;19.70;80.30;;;;;;4952102;29;20050;-77
2023/04/17 00:30:30;;;;;;;0.80;0.80;;;19.70;80.30;;;;;;4953555;29;20031;-78
2023/04/17 00:32:55;;;;;;;1.05;0.95;;;19.70;80.30;;;;;;4952144;29;20407;-78
2023/04/17 00:35:21;;;;;;;0.80;0.80;;;19.70;80.30;;;;;;4952141;29;20095;-78
2023/04/17 00:37:47;;;;;;;3.15;1.50;;;19.70;80.30;;;;;;4953419;28;20098;-78
2023/04/17 00:40:13;;;;;;;1.08;0.80;;;19.70;80.40;;;;;;4952298;29;20022;-78
2023/04/17 00:42:38;;;;;;;2.03;0.98;;;19.70;80.30;;;;;;4950095;28;20023;-78
2023/04/17 00:45:05;;;;;;;1.00;0.88;;;19.70;80.30;;;;;;4951776;29;20038;-78
2023/04/17 00:47:31;;;;;;;1.33;0.70;;;19.60;80.20;;;;;;4953058;28;20030;-77
2023/04/17 00:49:57;;;;;;;1.23;0.80;;;19.60;80.30;;;;;;4953132;28;20106;-78
2023/04/17 00:52:28;;;;;;;1.02;0.73;;;19.60;80.30;;;;;;4953240;29;20054;-78
2023/04/17 00:54:55;;;;;;;0.77;0.77;;;19.60;80.30;;;;;;4953035;28;20441;-77
2023/04/17 00:57:22;;;;;;;4.78;1.13;;;19.60;80.30;;;;;;4951151;28;20576;-78
2023/04/17 00:59:48;;;;;;;2.10;1.02;;;19.70;80.30;;;;;;4949377;29;20031;-78
2023/04/17 01:02:15;;;;;;;0.90;0.90;;;19.60;80.30;;;;;;4951789;29;20027;-78
2023/04/17 01:04:41;;;;;;;1.42;0.80;;;19.60;80.20;;;;;;4951491;29;20047;-77
2023/04/17 01:07:07;;;;;;;1.73;1.02;;;19.60;80.20;;;;;;4950304;28;20039;-77
2023/04/17 01:09:33;;;;;;;2.95;1.10;;;19.60;80.20;;;;;;4951495;28;20385;-78
2023/04/17 01:12:18;;;;;;;1.48;0.73;;;19.60;80.20;;;;;;4949885;29;20035;-74
2023/04/17 01:14:44;;;;;;;2.92;0.82;;;19.60;80.20;;;;;;4948053;29;20048;-78
2023/04/17 01:17:13;;;;;;;1.92;0.80;;;19.60;80.20;;;;;;4945843;29;20027;-78
2023/04/17 01:19:39;;;;;;;0.75;0.73;;;19.60;80.20;;;;;;4950075;28;20023;-78
2023/04/17 01:22:05;;;;;;;2.47;0.80;;;19.60;80.20;;;;;;4948223;28;20028;-78
2023/04/17 01:24:30;;;;;;;1.52;1.00;;;19.60;80.20;;;;;;4948800;29;20528;-78
2023/04/17 01:26:56;;;;;;;5.90;0.90;;;19.60;80.20;;;;;;4946792;28;20035;-78
2023/04/17 01:29:22;;;;;;;1.23;0.80;;;19.60;80.20;;;;;;4951420;29;20015;-77
2023/04/17 01:31:48;;;;;;;1.10;0.85;;;19.60;80.20;;;;;;4945693;29;20069;-78
2023/04/17 01:34:13;;;;;;;2.20;1.05;;;19.60;80.20;;;;;;4946669;29;20027;-75
2023/04/17 01:36:39;;;;;;;1.30;0.88;;;19.60;80.20;;;;;;4946973;28;20069;-75
2023/04/17 01:39:04;;;;;;;0.90;0.90;;;19.50;80.30;;;;;;4946909;29;20127;-73
2023/04/17 01:41:30;;;;;;;0.70;0.70;;;19.50;80.30;;;;;;4947991;28;20055;-74
2023/04/17 01:43:55;;;;;;;1.27;0.90;;;19.50;80.20;;;;;;4949214;28;20051;-75
2023/04/17 01:46:21;;;;;;;1.23;0.88;;;19.50;80.30;;;;;;4945663;29;20059;-75
2023/04/17 01:48:47;;;;;;;0.95;0.80;;;19.50;80.20;;;;;;4950827;29;20151;-76
2023/04/17 01:51:12;;;;;;;1.10;0.90;;;19.50;80.20;;;;;;4952357;29;20029;-75
2023/04/17 01:53:39;;;;;;;0.70;0.70;;;19.50;80.20;;;;;;4952127;29;20102;-75
2023/04/17 01:56:04;;;;;;;1.55;0.90;;;19.50;80.30;;;;;;4951903;28;20118;-75
2023/04/17 01:58:30;;;;;;;0.73;0.70;;;19.50;80.30;;;;;;4952230;28;20051;-75
2023/04/17 02:00:56;;;;;;;1.77;0.68;;;19.50;80.30;;;;;;4952443;29;20464;-75
2023/04/17 02:03:23;;;;;;;0.70;0.70;;;19.50;80.30;;;;;;4948014;28;20035;-74
2023/04/17 02:05:49;;;;;;;1.63;0.80;;;19.50;80.30;;;;;;4952191;29;20019;-75
2023/04/17 02:08:15;;;;;;;1.23;0.60;;;19.50;80.30;;;;;;4950667;28;20086;-75
2023/04/17 02:10:41;;;;;;;0.82;0.73;;;19.50;80.30;;;;;;4950782;29;20024;-75
2023/04/17 02:13:07;;;;;;;0.60;0.60;;;19.50;80.30;;;;;;4951253;28;20027;-75
2023/04/17 02:15:33;;;;;;;0.80;0.80;;;19.50;80.30;;;;;;4950785;29;20023;-71
2023/04/17 02:17:59;;;;;;;1.48;0.85;;;19.50;80.30;;;;;;4949744;28;20032;-75
2023/04/17 02:20:24;;;;;;;0.55;0.55;;;19.50;80.30;;;;;;4950359;29;20031;-75
2023/04/17 02:22:50;;;;;;;0.75;0.70;;;19.50;80.30;;;;;;4946939;29;20066;-74
2023/04/17 02:25:15;;;;;;;1.48;0.68;;;19.40;80.20;;;;;;4948949;28;20028;-75
2023/04/17 02:27:41;;;;;;;0.77;0.70;;;19.50;80.30;;;;;;4950257;28;20388;-74
2023/04/17 02:30:07;;;;;;;0.98;0.90;;;19.40;80.20;;;;;;4952052;28;20038;-74
2023/04/17 02:32:33;;;;;;;2.95;0.73;;;19.40;80.20;;;;;;4951713;28;20105;-76
2023/04/17 02:34:58;;;;;;;0.88;0.82;;;19.40;80.20;;;;;;4949684;28;20102;-75
2023/04/17 02:37:24;;;;;;;1.08;0.60;;;19.40;80.20;;;;;;4945666;28;20378;-75
2023/04/17 02:39:50;;;;;;;4.47;0.88;;;19.40;80.20;;;;;;4948568;29;20398;-76
2023/04/17 02:42:15;;;;;;;1.02;0.70;;;19.40;80.20;;;;;;4944613;29;20039;-76
2023/04/17 02:44:41;;;;;;;1.95;0.90;;;19.40;80.20;;;;;;4947579;29;20053;-75
2023/04/17 02:47:06;;;;;;;0.98;0.82;;;19.40;80.20;;;;;;4945260;28;20035;-75
2023/04/17 02:49:32;;;;;;;0.90;0.77;;;19.40;80.20;;;;;;4947093;29;20095;-75
2023/04/17 02:51:57;;;;;;;0.70;0.70;;;19.40;80.20;;;;;;4944138;29;20028;-75
2023/04/17 02:54:23;;;;;;;0.93;0.90;;;19.40;80.70;;;;;;4950497;29;20110;-75
2023/04/17 02:56:49;;;;;;;0.70;0.70;;;19.40;80.20;;;;;;4947326;28;20058;-75
2023/04/17 02:59:15;;;;;;;0.70;0.70;;;19.40;80.20;;;;;;4946299;29;20476;-76
2023/04/17 03:01:41;;;;;;;1.33;0.90;;;19.40;80.20;;;;;;4948593;29;20098;-72
2023/04/17 03:04:06;;;;;;;0.60;0.60;;;19.40;80.20;;;;;;4944553;29;20067;-75
2023/04/17 03:06:32;;;;;;;0.55;0.55;;;19.40;80.20;;;;;;4947697;28;20043;-76
2023/04/17 03:08:58;;;;;;;0.65;0.65;;;19.40;80.20;;;;;;4947080;29;20106;-75
2023/04/17 03:11:23;;;;;;;5.45;0.95;;;19.40;80.10;;;;;;4954993;29;20035;-75
2023/04/17 03:13:49;;;;;;;2.15;0.68;;;19.30;80.10;;;;;;4954856;29;20030;-75
2023/04/17 03:16:14;;;;;;;0.90;0.90;;;19.40;80.20;;;;;;4954556;29;20027;-75
2023/04/17 03:18:40;;;;;;;0.60;0.60;;;19.30;80.10;;;;;;4953523;28;20432;-75
2023/04/17 03:21:06;;;;;;;0.80;0.70;;;19.30;80.00;;;;;;4954896;28;20027;-75
2023/04/17 03:23:32;;;;;;;0.70;0.70;;;19.40;80.10;;;;;;4950128;29;20049;-76
2023/04/17 03:25:58;;;;;;;1.05;0.80;;;19.30;80.10;;;;;;4948324;29;20023;-75
2023/04/17 03:28:23;;;;;;;0.55;0.55;;;19.40;80.20;;;;;;4946997;29;20066;-75
2023/04/17 03:30:50;;;;;;;1.13;0.75;;;19.30;80.10;;;;;;4949878;29;20019;-75
2023/04/17 03:33:16;;;;;;;1.38;0.60;;;19.30;80.10;;;;;;4948234;28;20142;-75
2023/04/17 03:35:43;;;;;;;0.75;0.75;;;19.40;80.20;;;;;;4946503;28;20506;-75
2023/04/17 03:38:09;;;;;;;1.67;0.60;;;19.40;80.90;;;;;;4947786;29;20028;-77
2023/04/17 03:40:35;;;;;;;3.80;0.63;;;19.40;80.20;;;;;;4947425;28;20024;-75
2023/04/17 03:43:01;;;;;;;0.70;0.60;;;19.30;80.20;;;;;;4947543;29;20023;-75
2023/04/17 03:45:26;;;;;;;2.20;0.70;;;19.40;80.30;;;;;;4947220;29;20027;-75
2023/04/17 03:47:52;;;;;;;0.88;0.80;;;19.30;80.20;;;;;;4948556;28;20062;-76
2023/04/17 03:50:17;;;;;;;0.70;0.70;;;19.40;80.30;;;;;;4948249;29;20049;-76
2023/04/17 03:52:43;;;;;;;0.93;0.70;;;19.40;80.30;;;;;;4947925;29;20024;-77
2023/04/17 03:55:10;;;;;;;0.75;0.63;;;19.40;80.20;;;;;;4947162;28;20023;-76
2023/04/17 03:57:35;;;;;;;0.80;0.70;;;19.50;80.20;;;;;;4950472;28;20031;-77
2023/04/17 04:00:01;;;;;;;3.42;1.10;;;19.50;80.10;;;;;;4948543;29;20026;-78
2023/04/17 04:02:27;;;;;;;4.35;1.00;;;19.50;80.30;;;;;;4947189;29;20484;-77
2023/04/17 04:04:52;;;;;;;1.40;0.80;;;19.50;80.30;;;;;;4950425;29;20046;-76
2023/04/17 04:07:18;;;;;;;2.40;0.85;;;19.50;80.30;;;;;;4948342;28;20035;-78
2023/04/17 04:09:43;;;;;;;0.93;0.70;;;19.50;80.20;;;;;;4949084;29;20034;-75
2023/04/17 04:12:09;;;;;;;2.38;0.88;;;19.60;80.20;;;;;;4949492;29;20110;-76
2023/04/17 04:14:36;;;;;;;4.05;0.90;;;19.60;80.20;;;;;;4949585;29;20477;-74
2023/04/17 04:17:02;;;;;;;1.23;0.80;;;19.60;80.10;;;;;;4952101;28;20035;-75
2023/04/17 04:19:27;;;;;;;0.60;0.60;;;19.60;80.90;;;;;;4950244;29;20388;-75
2023/04/17 04:21:53;;;;;;;2.88;0.80;;;19.60;80.00;;;;;;4954139;29;20035;-77
2023/04/17 04:24:19;;;;;;;0.60;0.60;;;19.60;80.00;;;;;;4953650;29;20035;-78
2023/04/17 04:26:48;;;;;;;0.82;0.70;;;19.60;80.00;;;;;;4949830;28;20114;-76
2023/04/17 04:29:14;;;;;;;0.80;0.80;;;19.60;80.00;;;;;;4952343;29;20019;-77
2023/04/17 04:31:40;;;;;;;2.90;1.02;;;19.60;80.00;;;;;;4953401;28;20055;-76
2023/04/17 04:34:07;;;;;;;0.88;0.85;;;19.70;80.20;;;;;;4953884;29;20563;-74
2023/04/17 04:36:35;;;;;;;13.43;1.27;;;19.70;80.30;;;;;;4952652;28;20027;-75
2023/04/17 04:39:01;;;;;;;10.90;1.02;;;19.70;81.00;;;;;;4950833;29;20030;-75
2023/04/17 04:41:28;;;;;;;27.95;2.20;;;19.70;81.80;;;;;;4953003;29;20035;-75
2023/04/17 04:43:54;;;;;;;16.92;1.85;;;19.80;82.30;;;;;;4950304;29;20079;-76
2023/04/17 04:46:19;;;;;;;7.93;1.00;;;19.80;82.90;;;;;;4950844;29;20550;-76
2023/04/17 04:48:45;;;;;;;11.98;1.17;;;19.80;82.80;;;;;;4949358;28;20473;-78
2023/04/17 04:51:10;;;;;;;13.18;1.20;;;19.80;82.80;;;;;;4953361;29;20038;-76
2023/04/17 04:53:36;;;;;;;6.25;1.20;;;19.80;82.60;;;;;;4953660;29;20053;-77
2023/04/17 04:56:02;;;;;;;13.27;1.48;;;19.80;82.30;;;;;;4953250;29;20035;-76
2023/04/17 04:58:28;;;;;;;12.77;1.95;;;19.80;82.20;;;;;;4952815;28;20497;-76
2023/04/17 05:00:54;;;;;;;5.18;1.23;;;19.80;82.30;;;;;;4951759;28;20031;-76
2023/04/17 05:03:21;;;;;;;8.73;1.63;;;19.80;82.30;;;;;;4951218;28;20126;-76
2023/04/17 05:05:49;;;;;;;8.57;1.42;;;19.80;82.30;;;;;;4949576;29;20032;-77
2023/04/17 05:08:15;;;;;;;10.35;1.70;;;19.80;82.30;;;;;;4950111;28;20027;-77
2023/04/17 05:10:40;;;;;;;8.90;1.17;;;19.80;82.30;;;;;;4949319;29;20019;-77
2023/04/17 05:13:06;;;;;;;12.75;2.10;;;19.80;82.30;;;;;;4949572;29;20386;-77
2023/04/17 05:15:31;;;;;;;9.70;1.13;;;19.90;82.30;;;;;;4947822;29;20047;-76
2023/04/17 05:17:57;;;;;;;8.05;1.15;;;19.80;82.20;;;;;;4950813;28;20024;-77
2023/04/17 05:20:22;;;;;;;3.83;1.15;;;19.90;82.30;;;;;;4950418;29;20020;-79
2023/04/17 05:22:48;;;;;;;8.68;1.00;;;19.90;82.20;;;;;;4951539;29;20451;-78
2023/04/17 05:25:15;;;;;;;4.10;1.08;;;19.90;82.20;;;;;;4952325;29;20038;-79
2023/04/17 05:27:40;;;;;;;8.60;1.10;;;19.90;82.20;;;;;;4952470;28;20054;-78
2023/04/17 05:30:07;;;;;;;9.65;1.80;;;19.90;82.20;;;;;;4952794;29;20023;-82
2023/04/17 05:32:33;;;;;;;6.60;1.30;;;19.90;82.20;;;;;;4949323;29;20531;-78
2023/04/17 05:34:59;;;;;;;8.75;1.88;;;19.90;82.20;;;;;;4951379;28;20414;-73
2023/04/17 05:37:25;;;;;;;31.58;3.10;;;19.90;82.10;;;;;;4948992;28;20063;-78
2023/04/17 05:39:51;;;;;;;10.02;1.35;;;20.10;82.90;;;;;;4951243;29;20031;-78
2023/04/17 05:42:16;;;;;;;7.47;1.40;;;20.20;86.90;;;;;;4951451;28;20530;-77
2023/04/17 05:44:42;;;;;;;8.43;1.67;;;20.30;87.20;;;;;;4953824;29;20405;-76
2023/04/17 05:47:07;;;;;;;3.30;1.17;;;20.40;81.70;;;;;;4951911;28;20066;-78
2023/04/17 05:49:33;;;;;;;6.65;1.13;;;20.50;85.40;;;;;;4950274;29;20024;-80
2023/04/17 05:51:58;;;;;;;5.40;1.00;;;20.50;85.20;;;;;;4952138;29;20035;-78
2023/04/17 05:54:26;;;;;;;6.57;1.30;;;20.50;84.10;;;;;;4952857;29;20031;-77
2023/04/17 05:56:52;;;;;;;5.00;1.30;;;20.50;81.00;;;;;;4952903;28;20023;-79
2023/04/17 05:59:17;;;;;;;7.60;1.02;;;20.60;80.70;;;;;;4953547;28;20019;-75
2023/04/17 06:01:43;;;;;;;18.30;2.25;;;20.60;80.80;;;;;;4951120;29;20531;-76
2023/04/17 06:04:08;;;;;;;21.10;2.28;;;20.60;80.50;;;;;;4955666;29;20110;-79
2023/04/17 06:06:34;;;;;;;9.50;1.00;;;20.60;80.20;;;;;;4957261;29;20027;-78
2023/04/17 06:09:00;;;;;;;6.05;1.52;;;20.60;80.20;;;;;;4940246;28;20079;-79
2023/04/17 06:11:26;;;;;;;10.57;1.25;;;20.60;80.20;;;;;;4944151;29;20019;-79
2023/04/17 06:13:51;;;;;;;4.63;1.25;;;20.60;80.20;;;;;;4945129;29;20024;-78
2023/04/17 06:16:17;;;;;;;5.95;0.98;;;20.60;80.10;;;;;;4941228;29;20051;-79
2023/04/17 06:18:42;;;;;;;5.90;1.20;;;20.60;80.20;;;;;;4944465;29;20033;-78
2023/04/17 06:21:08;;;;;;;5.50;0.95;;;20.50;80.10;;;;;;4942260;29;20446;-78
2023/04/17 06:23:33;;;;;;;3.80;1.50;;;20.50;80.10;;;;;;4947385;29;20148;-78
2023/04/17 06:25:59;;;;;;;3.33;0.90;;;20.50;80.10;;;;;;4948123;29;20405;-78
2023/04/17 06:28:25;;;;;;;4.47;1.00;;;20.50;80.20;;;;;;4945020;29;20031;-79
2023/04/17 06:30:50;;;;;;;4.05;0.80;;;20.50;80.20;;;;;;4941338;29;20174;-77
2023/04/17 06:33:16;;;;;;;6.32;1.00;;;20.50;80.20;;;;;;4950623;29;20396;-78
2023/04/17 06:35:41;;;;;;;3.45;1.23;;;20.50;80.30;;;;;;4942329;29;20020;-78
2023/04/17 06:38:07;;;;;;;3.00;1.08;;;20.50;80.30;;;;;;4950667;28;20019;-79
2023/04/17 06:40:33;;;;;;;6.45;0.98;;;20.40;80.20;;;;;;4950549;29;20397;-76
2023/04/17 06:42:59;;;;;;;2.38;0.73;;;20.50;80.30;;;;;;4949807;29;20035;-79
2023/04/17 06:45:24;;;;;;;10.57;1.60;;;20.50;80.30;;;;;;4950654;29;20537;-78
2023/04/17 06:47:50;;;;;;;5.40;1.38;;;20.40;80.20;;;;;;4947723;29;20024;-78
2023/04/17 06:50:15;;;;;;;4.13;0.88;;;20.40;80.10;;;;;;4950399;29;20022;-77
2023/04/17 06:52:42;;;;;;;3.00;0.75;;;20.40;80.10;;;;;;4947108;29;20093;-77
2023/04/17 06:55:08;;;;;;;2.42;0.90;;;20.50;80.20;;;;;;4944771;29;20023;-78
2023/04/17 06:57:34;;;;;;;3.88;0.90;;;20.40;79.70;;;;;;4948022;28;20385;-77
2023/04/17 06:59:59;;;;;;;6.00;1.10;;;20.40;79.70;;;;;;4949542;29;20028;-77
2023/04/17 07:02:25;;;;;;;1.85;1.02;;;20.40;80.60;;;;;;4950467;29;20031;-79
2023/04/17 07:04:52;;;;;;;7.55;0.88;;;20.40;79.90;;;;;;4945534;29;20035;-76
2023/04/17 07:07:17;;;;;;;9.25;1.50;;;20.50;80.00;;;;;;4945591;29;20059;-76
2023/04/17 07:09:44;;;;;;;9.43;1.27;;;20.50;80.20;;;;;;4945352;29;20057;-76
2023/04/17 07:12:09;;;;;;;3.70;1.00;;;20.50;80.30;;;;;;4948862;29;20392;-78
2023/04/17 07:14:35;;;;;;;20.42;1.70;;;20.40;80.20;;;;;;4952522;29;20166;-77
2023/04/17 07:17:01;;;;;;;4.43;1.10;;;20.50;80.50;;;;;;4949187;28;20499;-77
2023/04/17 07:19:27;;;;;;;16.52;1.65;;;20.40;80.40;;;;;;4947443;29;20023;-77
2023/04/17 07:21:52;;;;;;;6.82;1.13;;;20.40;80.50;;;;;;4952013;29;20411;-77
2023/04/17 07:24:18;;;;;;;27.15;1.77;;;20.40;80.80;;;;;;4947492;29;20032;-79
2023/04/17 07:26:44;;;;;;;14.55;1.40;;;20.40;80.50;;;;;;4946516;29;20441;-77
2023/04/17 07:29:09;;;;;;;6.65;0.93;;;20.40;80.50;;;;;;4944738;29;20445;-78
2023/04/17 07:31:35;;;;;;;11.20;1.40;;;20.40;80.50;;;;;;4952561;29;20034;-79
2023/04/17 07:34:01;;;;;;;2.15;0.98;;;20.40;80.50;;;;;;4952713;29;20083;-80
2023/04/17 07:36:27;;;;;;;11.32;1.27;;;20.40;80.50;;;;;;4953020;29;20120;-79
2023/04/17 07:38:53;;;;;;;4.15;1.38;;;20.40;80.40;;;;;;4945254;28;20087;-78
2023/04/17 07:41:18;;;;;;;8.73;1.45;;;20.40;80.50;;;;;;4952166;29;20023;-75
2023/04/17 07:43:44;;;;;;;16.10;1.60;;;20.40;80.50;;;;;;4945596;29;20442;-76
2023/04/17 07:46:09;;;;;;;2.30;1.20;;;20.40;80.60;;;;;;4947876;29;20492;-75
2023/04/17 07:48:35;;;;;;;7.82;1.15;;;20.40;80.70;;;;;;4950615;28;20024;-76
2023/04/17 07:51:00;;;;;;;5.93;1.05;;;20.50;80.60;;;;;;4947780;29;20118;-78
2023/04/17 07:53:27;;;;;;;13.35;1.55;;;20.50;80.60;;;;;;4953541;28;20219;-79
2023/04/17 07:55:53;;;;;;;21.83;1.88;;;20.50;81.10;;;;;;4947498;28;20024;-75
2023/04/17 07:58:19;;;;;;;11.88;1.23;;;20.70;81.50;;;;;;4952963;28;20019;-75
2023/04/17 08:00:45;;;;;;;16.92;1.20;;;20.70;81.20;;;;;;4945745;29;20031;-75
2023/04/17 08:03:12;;;;;;;18.33;2.17;;;20.60;81.20;;;;;;4946774;29;20115;-74
2023/04/17 08:05:39;;;;;;;8.68;0.95;;;20.60;81.20;;;;;;4950825;29;20440;-76
2023/04/17 08:08:04;;;;;;;12.13;0.95;;;20.50;80.90;;;;;;4946191;29;20028;-75
2023/04/17 08:10:30;;;;;;;5.43;1.00;;;20.50;80.80;;;;;;4942579;29;20065;-75
2023/04/17 08:12:56;;;;;;;7.13;1.15;;;20.50;80.80;;;;;;4945761;29;20023;-75
2023/04/17 08:15:21;;;;;;;7.63;1.30;;;20.50;80.70;;;;;;4951426;29;20421;-74
2023/04/17 08:17:48;;;;;;;3.72;0.90;;;20.50;80.70;;;;;;4950877;28;20035;-76
2023/04/17 08:20:14;;;;;;;13.52;1.42;;;20.50;80.40;;;;;;4951994;29;21343;-77
2023/04/17 08:22:41;;;;;;;5.68;1.10;;;20.50;80.30;;;;;;4950441;28;20027;-75
2023/04/17 08:25:08;;;;;;;6.13;1.35;;;20.50;80.20;;;;;;4950413;28;20027;-76
2023/04/17 08:27:43;;;;;;;2.85;1.00;;;20.50;80.10;;;;;;4952635;28;20016;-80
2023/04/17 08:30:11;;;;;;;9.25;1.77;;;20.50;80.20;;;;;;4950707;28;20054;-76
2023/04/17 08:32:47;;;;;;;3.22;1.00;;;20.50;80.20;;;;;;4948109;28;20051;-77
2023/04/17 08:35:14;;;;;;;13.13;1.30;;;20.50;80.10;;;;;;4949448;29;20050;-75
2023/04/17 08:37:43;;;;;;;21.40;1.40;;;20.50;80.00;;;;;;4949545;28;20564;-77
2023/04/17 08:40:11;;;;;;;6.37;1.47;;;20.50;80.00;;;;;;4950326;29;20031;-75
2023/04/17 08:42:37;;;;;;;4.22;0.93;;;20.50;80.00;;;;;;4951545;29;20086;-75
2023/04/17 08:45:05;;;;;;;8.43;0.98;;;20.50;80.00;;;;;;4949803;29;20123;-76
2023/04/17 08:47:33;;;;;;;3.47;1.13;;;20.50;80.10;;;;;;4945801;29;20094;-77
2023/04/17 08:50:07;;;;;;;11.32;1.60;;;20.50;80.00;;;;;;4945882;29;20047;-75
2023/04/17 08:52:36;;;;;;;9.80;1.10;;;20.50;80.50;;;;;;4948000;28;20070;-76
2023/04/17 08:55:02;;;;;;;6.43;1.77;;;20.60;79.80;;;;;;4948264;29;20032;-77
2023/04/17 08:57:28;;;;;;;2.72;0.90;;;20.70;79.50;;;;;;4950500;28;20074;-76
2023/04/17 08:59:53;;;;;;;5.97;1.10;;;20.70;79.50;;;;;;4950781;29;20032;-76
2023/04/17 09:02:19;;;;;;;11.63;1.20;;;20.70;79.30;;;;;;4947222;29;20404;-77
2023/04/17 09:04:45;;;;;;;7.70;1.40;;;20.70;79.30;;;;;;4942923;29;20107;-76
2023/04/17 09:07:13;;;;;;;4.88;0.90;;;20.70;79.20;;;;;;4943687;29;20023;-74
2023/04/17 09:09:48;;;;;;;8.57;1.55;;;20.70;79.10;;;;;;4944680;28;20015;-77
2023/04/17 09:12:14;;;;;;;5.47;1.38;;;20.70;79.10;;;;;;4950339;29;20028;-75
2023/04/17 09:14:40;;;;;;;9.02;1.30;;;20.70;79.00;;;;;;4945135;29;20042;-77
2023/04/17 09:17:06;;;;;;;5.10;1.20;;;20.70;79.00;;;;;;4948190;28;20047;-76
2023/04/17 09:19:31;;;;;;;3.67;1.20;;;20.70;79.00;;;;;;4940072;29;20074;-73
2023/04/17 09:22:15;;;;;;;13.23;1.30;;;20.70;78.80;;;;;;4946384;29;20046;-74
2023/04/17 09:24:43;;;;;;;32.85;2.80;;;20.60;78.80;;;;;;4947195;29;20027;-74
2023/04/17 09:27:20;;;;;;;20.75;2.45;;;20.70;79.30;;;;;;4945015;28;20067;-73
2023/04/17 09:30:03;;;;;;;30.17;2.38;;;20.70;79.80;;;;;;4940186;29;20109;-75
2023/04/17 09:32:31;;;;;;;32.30;2.75;;;20.70;79.20;;;;;;4942046;29;20019;-78
2023/04/17 09:35:00;;;;;;;26.40;1.75;;;20.80;79.20;;;;;;4939446;28;20042;-76
2023/04/17 09:37:46;;;;;;;13.27;1.73;;;20.80;78.90;;;;;;4943317;29;20023;-76
2023/04/17 09:40:11;;;;;;;17.88;2.45;;;20.90;78.90;;;;;;4947415;29;20042;-76
2023/04/17 09:42:59;;;;;;;32.67;2.50;;;20.80;78.60;;;;;;4937236;29;20035;-76
2023/04/17 09:45:28;;;;;;;15.63;2.40;;;20.90;78.40;;;;;;4942578;29;20102;-75
2023/04/17 09:47:54;;;;;;;24.08;1.98;;;20.90;78.40;;;;;;4946422;28;20024;-76
2023/04/17 09:50:21;;;;;;;18.48;1.65;;;21.00;78.40;;;;;;4945487;28;20034;-75
2023/04/17 09:52:51;;;;;;;18.48;1.63;;;21.00;78.40;;;;;;4948930;28;20027;-77
2023/04/17 09:55:20;;;;;;;13.70;2.40;;;21.00;78.20;;;;;;4948388;29;20030;-77
2023/04/17 09:57:50;;;;;;;12.32;1.70;;;21.00;78.20;;;;;;4943229;28;20034;-76
2023/04/17 10:00:19;;;;;;;;;;;21.00;78.20;;;;;;4943530;29;20020;-77
2023/04/17 10:02:48;;;;;;;14.82;1.58;;;21.00;78.00;;;;;;4951113;29;19910;-78
2023/04/17 10:05:13;;;;;;;22.08;1.90;;;21.10;78.00;;;;;;4945695;28;20030;-77
2023/04/17 10:07:39;;;;;;;11.88;1.40;;;21.10;78.00;;;;;;4941727;28;20099;-77
2023/04/17 10:10:09;;;;;;;11.48;1.58;;;21.20;77.90;;;;;;4946648;29;20029;-77
2023/04/17 10:12:37;;;;;;;11.10;1.73;;;21.20;77.90;;;;;;4942521;29;20147;-77
2023/04/17 10:15:04;;;;;;;6.47;1.25;;;21.20;77.90;;;;;;4947589;29;20031;-78
2023/04/17 10:17:31;;;;;;;12.52;1.25;;;21.20;77.90;;;;;;4940449;28;20110;-78
2023/04/17 10:20:21;;;;;;;9.63;1.30;;;21.20;77.80;;;;;;4941420;29;20027;-77
2023/04/17 10:22:54;;;;;;;9.18;1.98;;;21.20;77.70;;;;;;4945340;29;20042;-79
2023/04/17 10:25:24;;;;;;;3.65;1.40;;;21.20;77.70;;;;;;4943415;28;20028;-78
2023/04/17 10:27:52;;;;;;;;;;;21.20;77.70;;;;;;4944241;28;20038;-78
2023/04/17 10:30:20;;;;;;;10.75;1.38;;;21.20;77.70;;;;;;4940664;29;20265;-78
2023/04/17 10:33:11;;;;;;;7.75;1.08;;;21.20;77.70;;;;;;4944894;29;20027;-78
2023/04/17 10:35:37;;;;;;;2.80;1.13;;;21.20;77.70;;;;;;4939520;28;20409;-77
2023/04/17 10:38:07;;;;;;;7.07;1.45;;;21.20;77.70;;;;;;4943260;28;20620;-78
2023/04/17 10:40:37;;;;;;;6.80;1.73;;;21.20;77.60;;;;;;4941788;29;20031;-78
2023/04/17 10:43:05;;;;;;;;;;;21.20;77.70;;;;;;4946150;28;20424;-78
2023/04/17 10:45:55;;;;;;;3.45;1.20;;;21.20;77.50;;;;;;4943612;29;19910;-77
2023/04/17 10:48:25;;;;;;;3.35;1.23;;;21.20;77.60;;;;;;4944691;29;20158;-77
2023/04/17 10:50:50;;;;;;;3.55;1.10;;;21.20;77.70;;;;;;4952682;29;20057;-77
2023/04/17 10:53:39;;;;;;;10.40;0.90;;;21.20;77.50;;;;;;4951546;29;20059;-77
2023/04/17 10:56:05;;;;;;;4.90;1.40;;;21.20;77.50;;;;;;4946799;29;20027;-78
2023/04/17 10:58:31;;;;;;;2.63;1.10;;;21.20;77.40;;;;;;4945159;28;20042;-77
2023/04/17 11:01:02;;;;;;;11.77;1.73;;;21.20;78.20;;;;;;4949345;29;20098;-78
2023/04/17 11:03:29;;;;;;;2.30;1.40;;;21.20;77.40;;;;;;4951391;29;20031;-77
2023/04/17 11:05:57;;;;;;;4.80;1.42;;;21.20;77.40;;;;;;4947854;29;20103;-77
2023/04/17 11:08:23;;;;;;;1.60;0.80;;;21.20;77.40;;;;;;4952771;28;20445;-77
2023/04/17 11:10:53;;;;;;;4.25;1.33;;;21.20;77.40;;;;;;4955531;28;20047;-77
2023/04/17 11:13:18;;;;;;;6.15;1.20;;;21.20;77.30;;;;;;4954142;29;20126;-78
2023/04/17 11:15:44;;;;;;;3.58;1.23;;;21.20;77.40;;;;;;4954022;29;20147;-77
2023/04/17 11:18:10;;;;;;;7.03;1.30;;;21.20;77.40;;;;;;4955006;28;20047;-77
2023/04/17 11:20:36;;;;;;;3.35;1.20;;;21.20;77.40;;;;;;4947779;29;20023;-77
2023/04/17 11:23:04;;;;;;;2.78;1.05;;;21.20;77.30;;;;;;4954606;29;20110;-77
2023/04/17 11:25:32;;;;;;;6.18;1.00;;;21.20;77.20;;;;;;4954865;28;20031;-79
2023/04/17 11:28:00;;;;;;;7.13;1.08;;;21.20;77.30;;;;;;4953633;28;20564;-77
2023/04/17 11:30:27;;;;;;;4.43;0.95;;;21.20;77.30;;;;;;4946956;29;20074;-77
2023/04/17 11:32:52;;;;;;;4.65;0.98;;;21.20;77.30;;;;;;4950919;29;20474;-77
2023/04/17 11:35:26;;;;;;;12.35;1.42;;;21.20;77.30;;;;;;4952552;29;20035;-77
2023/04/17 11:38:10;;;;;;;11.25;0.90;;;21.20;77.30;;;;;;4975010;28;20054;-77
2023/04/17 11:40:57;;;;;;;1.08;0.93;;;21.20;77.30;;;;;;4954978;28;20019;-77
2023/04/17 11:43:24;;;;;;;2.90;1.00;;;21.20;77.30;;;;;;4951038;28;20035;-77
2023/04/17 11:45:52;;;;;;;2.53;0.85;;;21.20;77.30;;;;;;4946689;29;20042;-77
2023/04/17 11:48:26;;;;;;;7.47;1.40;;;21.20;77.20;;;;;;4948512;28;20041;-77
2023/04/17 11:50:57;;;;;;;3.22;1.20;;;21.20;77.20;;;;;;4952233;29;20011;-77
2023/04/17 11:53:23;;;;;;;7.20;1.50;;;21.20;77.20;;;;;;4951702;29;20521;-78
2023/04/17 11:56:10;;;;;;;5.70;1.00;;;21.20;77.20;;;;;;4952102;29;20034;-78
2023/04/17 11:58:53;;;;;;;3.47;0.90;;;21.20;77.20;;;;;;4953006;28;20023;-77
2023/04/17 12:01:24;;;;;;;4.57;0.95;;;21.10;77.30;;;;;;4949269;28;20103;-78
2023/04/17 12:03:52;;;;;;;2.78;0.88;;;21.20;77.40;;;;;;4951492;29;20082;-77
2023/04/17 12:06:17;;;;;;;2.60;1.00;;;21.10;77.40;;;;;;4947548;28;20178;-77
2023/04/17 12:08:49;;;;;;;2.55;0.90;;;21.10;77.40;;;;;;4954181;28;20449;-77
2023/04/17 12:11:27;;;;;;;3.28;1.20;;;21.10;77.50;;;;;;4952789;29;20441;-78
2023/04/17 12:13:54;;;;;;;3.22;1.20;;;21.10;77.50;;;;;;4950960;29;20493;-77
2023/04/17 12:16:21;;;;;;;2.40;0.88;;;21.00;77.50;;;;;;4953736;28;20549;-78
2023/04/17 12:18:46;;;;;;;3.03;1.15;;;21.00;77.50;;;;;;4953815;28;20086;-77
2023/04/17 12:21:13;;;;;;;3.47;1.00;;;21.00;77.50;;;;;;4951427;28;20036;-77
2023/04/17 12:23:40;;;;;;;3.15;0.90;;;21.00;77.60;;;;;;4953733;28;20034;-77
2023/04/17 12:26:05;;;;;;;2.67;1.00;;;21.00;77.70;;;;;;4953636;28;20027;-77
2023/04/17 12:28:31;;;;;;;4.05;0.70;;;21.00;77.60;;;;;;4953826;28;20019;-77
2023/04/17 12:30:57;;;;;;;2.00;0.98;;;21.00;77.70;;;;;;4951187;29;20038;-78
2023/04/17 12:33:22;;;;;;;1.13;1.02;;;20.90;77.60;;;;;;4951866;29;20015;-77
2023/04/17 12:35:50;;;;;;;6.95;1.00;;;20.90;77.70;;;;;;4953693;29;20417;-77
2023/04/17 12:38:16;;;;;;;1.63;1.00;;;20.90;77.70;;;;;;4953385;28;20114;-78
2023/04/17 12:40:42;;;;;;;1.80;0.95;;;20.90;77.80;;;;;;4953279;28;20131;-78
2023/04/17 12:43:11;;;;;;;3.42;0.90;;;20.80;77.80;;;;;;4952403;29;20023;-77
2023/04/17 12:45:37;;;;;;;1.70;0.90;;;20.80;77.90;;;;;;4947475;28;20499;-77